Time;durP1;ratioP1;P1;durP2;ratioP2;P2;SDS_P1;SDS_P2;PMS_P1;PMS_P2;Temp;Humidity;BMP_temperature;BMP_pressure;BME280_temperature;BME280_humidity;BME280_pressure;Samples;Min_cycle;Max_cycle;Signal;HPM_P1;HPM_P2
2023/11/02 00:01:16;;;;;;;;;;;;;;;6.92;94.64;99635.84;107633;276;104987;-56
2023/11/02 00:03:53;;;;;;;;;;;;;;;6.91;94.62;99635.57;107652;276;114476;-58
2023/11/02 00:06:36;;;;;;;;;;;;;;;6.91;94.78;99630.73;107660;276;96116;-57
2023/11/02 00:09:35;;;;;;;;;;;;;;;6.89;95.01;99634.85;107709;276;96913;-57
2023/11/02 00:12:21;;;;;;;;;;;;;;;6.90;94.94;99633.70;107669;276;121860;-57
2023/11/02 00:14:57;;;;;;;;;;;;;;;6.90;94.97;99636.80;107680;276;105913;-52
2023/11/02 00:17:50;;;;;;;;;;;;;;;6.91;95.06;99634.79;107713;276;114491;-57
2023/11/02 00:20:37;;;;;;;;;;;;;;;6.92;95.04;99633.08;107521;276;96344;-57
2023/11/02 00:23:14;;;;;;;;;;;;;;;6.92;95.17;99627.00;107623;276;96622;-53
2023/11/02 00:25:55;;;;;;;;;;;;;;;6.95;95.25;99627.57;107630;276;122434;-54
2023/11/02 00:28:29;;;;;;;;;;;;;;;6.99;95.22;99628.23;107704;276;105893;-53
2023/11/02 00:31:08;;;;;;;;;;;;;;;6.98;95.40;99620.39;107623;276;114985;-53
2023/11/02 00:33:47;;;;;;;;;;;;;;;6.96;95.28;99616.73;107667;276;96882;-53
2023/11/02 00:36:23;;;;;;;;;;;;;;;6.95;95.40;99616.64;107659;276;97171;-53
2023/11/02 00:38:59;;;;;;;;;;;;;;;6.95;95.37;99618.70;107677;276;122480;-58
2023/11/02 00:41:39;;;;;;;;;;;;;;;6.96;95.53;99615.91;107620;276;104859;-58
2023/11/02 00:44:17;;;;;;;;;;;;;;;6.99;95.60;99617.06;107664;276;112481;-57
2023/11/02 00:46:51;;;;;;;;;;;;;;;6.99;95.75;99616.31;107669;276;96633;-55
2023/11/02 00:49:28;;;;;;;;;;;;;;;7.04;95.67;99610.48;107698;276;97502;-51
2023/11/02 00:52:07;;;;;;;;;;;;;;;7.04;95.53;99606.35;107644;276;122197;-52
2023/11/02 00:55:07;;;;;;;;;;;;;;;7.02;95.56;99606.61;107682;276;106329;-56
2023/11/02 00:57:44;;;;;;;;;;;;;;;7.02;95.55;99603.96;107644;276;114821;-57
2023/11/02 01:00:51;;;;;;;;;;;;;;;6.98;95.74;99606.96;107655;276;95640;-57
2023/11/02 01:03:27;;;;;;;;;;;;;;;6.99;95.71;99604.64;107703;276;97711;-54
2023/11/02 01:06:07;;;;;;;;;;;;;;;7.01;95.70;99604.04;107642;276;122007;-53
2023/11/02 01:08:41;;;;;;;;;;;;;;;7.00;95.92;99597.40;107727;276;104448;-55
2023/11/02 01:11:21;;;;;;;;;;;;;;;7.01;95.63;99589.23;107628;276;113514;-56
2023/11/02 01:13:57;;;;;;;;;;;;;;;6.99;95.87;99587.89;107638;276;96201;-57
2023/11/02 01:16:30;;;;;;;;;;;;;;;7.00;95.80;99585.26;107665;276;97811;-57
2023/11/02 01:19:08;;;;;;;;;;;;;;;7.00;95.93;99582.30;107644;276;121401;-58
2023/11/02 01:21:43;;;;;;;;;;;;;;;7.03;95.86;99578.41;107642;276;104073;-56
2023/11/02 01:24:39;;;;;;;;;;;;;;;7.04;95.92;99575.98;107643;276;114393;-54
2023/11/02 01:27:20;;;;;;;;;;;;;;;7.05;95.98;99579.59;107619;276;95717;-53
2023/11/02 01:29:56;;;;;;;;;;;;;;;7.07;95.85;99574.15;107658;276;97629;-55
2023/11/02 01:32:36;;;;;;;;;;;;;;;7.05;95.83;99567.04;107655;276;121100;-53
2023/11/02 01:35:33;;;;;;;;;;;;;;;6.98;95.88;99568.80;107634;276;105328;-52
2023/11/02 01:38:08;;;;;;;;;;;;;;;6.97;95.85;99557.39;107658;276;114404;-56
2023/11/02 01:40:48;;;;;;;;;;;;;;;6.98;96.00;99552.48;107646;276;96668;-56
2023/11/02 01:43:29;;;;;;;;;;;;;;;6.99;95.88;99549.05;107659;276;97727;-54
2023/11/02 01:46:12;;;;;;;;;;;;;;;6.98;95.94;99549.67;107602;276;122059;-54
2023/11/02 01:48:55;;;;;;;;;;;;;;;6.97;95.88;99549.92;107683;276;105163;-58
2023/11/02 01:51:35;;;;;;;;;;;;;;;6.97;96.01;99544.94;107622;276;114614;-56
2023/11/02 01:54:15;;;;;;;;;;;;;;;6.98;95.95;99542.98;107636;276;97007;-57
2023/11/02 01:57:00;;;;;;;;;;;;;;;6.99;95.89;99541.83;107663;276;97921;-58
2023/11/02 01:59:44;;;;;;;;;;;;;;;6.99;95.97;99541.64;107650;276;122648;-53
2023/11/02 02:02:24;;;;;;;;;;;;;;;7.02;96.05;99545.96;107657;276;106988;-53
2023/11/02 02:05:04;;;;;;;;;;;;;;;7.04;96.11;99540.42;107633;276;114409;-56
2023/11/02 02:07:47;;;;;;;;;;;;;;;7.07;96.09;99542.94;107654;276;96973;-53
2023/11/02 02:10:27;;;;;;;;;;;;;;;7.08;96.15;99547.19;107625;276;96600;-53
2023/11/02 02:13:15;;;;;;;;;;;;;;;7.07;96.01;99546.49;107690;276;121522;-56
2023/11/02 02:15:59;;;;;;;;;;;;;;;7.08;95.91;99550.13;107661;276;105487;-56
2023/11/02 02:18:36;;;;;;;;;;;;;;;7.09;95.88;99552.41;107596;276;115154;-52
2023/11/02 02:21:13;;;;;;;;;;;;;;;7.07;95.80;99551.39;107671;276;96978;-52
2023/11/02 02:23:53;;;;;;;;;;;;;;;7.06;95.86;99550.98;107702;276;97968;-52
2023/11/02 02:26:53;;;;;;;;;;;;;;;7.05;95.92;99543.23;107668;276;120595;-53
2023/11/02 02:30:05;;;;;;;;;;;;;;;7.06;95.97;99537.91;107620;268;105655;-55
2023/11/02 02:33:14;;;;;;;;;;;;;;;7.08;96.09;99535.84;107591;277;112797;-55
2023/11/02 02:35:56;;;;;;;;;;;;;;;7.08;96.09;99529.77;107280;277;95832;-55
2023/11/02 02:38:35;;;;;;;;;;;;;;;7.10;96.03;99522.35;107603;277;96691;-57
2023/11/02 02:41:14;;;;;;;;;;;;;;;7.08;96.03;99522.25;107601;277;121296;-57
2023/11/02 02:43:53;;;;;;;;;;;;;;;7.09;95.86;99519.49;107602;277;106027;-55
2023/11/02 02:46:32;;;;;;;;;;;;;;;7.08;95.92;99522.08;107490;277;113708;-54
2023/11/02 02:49:13;;;;;;;;;;;;;;;7.13;95.85;99523.75;107537;277;95425;-54
2023/11/02 02:51:50;;;;;;;;;;;;;;;7.13;95.71;99527.23;107232;278;99190;-54
2023/11/02 02:54:29;;;;;;;;;;;;;;;7.15;95.75;99525.46;107497;277;122107;-54
2023/11/02 02:57:06;;;;;;;;;;;;;;;7.18;95.74;99519.02;107522;277;104864;-53
2023/11/02 02:59:40;;;;;;;;;;;;;;;7.16;95.76;99511.39;107465;277;114373;-54
2023/11/02 03:02:15;;;;;;;;;;;;;;;7.11;95.84;99512.07;107437;277;95816;-55
2023/11/02 03:04:52;;;;;;;;;;;;;;;7.10;95.75;99518.77;107502;277;98548;-57
2023/11/02 03:07:31;;;;;;;;;;;;;;;7.10;95.76;99523.77;107523;277;120549;-53
2023/11/02 03:10:09;;;;;;;;;;;;;;;7.10;95.84;99522.52;107532;277;104946;-53
2023/11/02 03:12:46;;;;;;;;;;;;;;;7.10;95.58;99516.45;107485;277;113869;-55
2023/11/02 03:15:27;;;;;;;;;;;;;;;7.12;95.58;99521.38;107428;277;97202;-55
2023/11/02 03:18:11;;;;;;;;;;;;;;;7.12;95.56;99517.83;107524;277;98535;-58
2023/11/02 03:20:48;;;;;;;;;;;;;;;7.12;95.83;99514.45;107484;277;120227;-57
2023/11/02 03:23:31;;;;;;;;;;;;;;;7.11;95.59;99510.83;107524;277;105468;-57
2023/11/02 03:26:19;;;;;;;;;;;;;;;7.09;95.40;99510.31;107472;277;114407;-57
2023/11/02 03:29:02;;;;;;;;;;;;;;;7.11;95.41;99512.90;107499;277;97163;-57
2023/11/02 03:31:46;;;;;;;;;;;;;;;7.13;95.47;99509.09;107501;277;98461;-57
2023/11/02 03:34:27;;;;;;;;;;;;;;;7.13;95.37;99504.09;107495;277;121987;-52
2023/11/02 03:37:12;;;;;;;;;;;;;;;7.10;95.23;99498.52;107507;277;105216;-52
2023/11/02 03:40:07;;;;;;;;;;;;;;;7.08;95.29;99496.30;107471;277;114274;-53
2023/11/02 03:42:50;;;;;;;;;;;;;;;7.06;95.12;99494.00;107536;277;96138;-52
2023/11/02 03:45:46;;;;;;;;;;;;;;;7.03;95.16;99491.16;107511;277;98301;-53
2023/11/02 03:48:27;;;;;;;;;;;;;;;7.05;95.14;99487.58;107517;277;122469;-57
2023/11/02 03:51:16;;;;;;;;;;;;;;;7.05;95.10;99491.85;107500;277;105277;-57
2023/11/02 03:53:59;;;;;;;;;;;;;;;7.05;94.97;99490.02;107450;277;115876;-54
2023/11/02 03:56:43;;;;;;;;;;;;;;;7.03;94.95;99493.97;107490;277;97367;-53
2023/11/02 03:59:21;;;;;;;;;;;;;;;7.02;94.71;99493.67;107504;277;96908;-56
2023/11/02 04:02:00;;;;;;;;;;;;;;;7.05;94.73;99492.71;107497;277;120642;-56
2023/11/02 04:04:42;;;;;;;;;;;;;;;7.04;94.74;99484.47;107497;277;105687;-52
2023/11/02 04:07:30;;;;;;;;;;;;;;;7.03;94.58;99472.73;107500;277;113799;-53
2023/11/02 04:10:08;;;;;;;;;;;;;;;7.03;94.62;99469.55;107500;277;97315;-52
2023/11/02 04:12:51;;;;;;;;;;;;;;;7.00;94.79;99470.63;107555;277;98000;-56
2023/11/02 04:15:28;;;;;;;;;;;;;;;7.00;94.68;99475.30;107496;277;121426;-55
2023/11/02 04:18:05;;;;;;;;;;;;;;;6.98;94.62;99474.84;107528;277;106083;-56
2023/11/02 04:20:37;;;;;;;;;;;;;;;6.95;94.62;99472.18;107459;277;114895;-57
2023/11/02 04:23:11;;;;;;;;;;;;;;;6.98;94.45;99474.66;107510;277;97466;-57
2023/11/02 04:25:46;;;;;;;;;;;;;;;6.99;94.67;99479.50;107529;277;97729;-57
2023/11/02 04:28:21;;;;;;;;;;;;;;;7.04;94.66;99478.24;107558;277;120778;-53
2023/11/02 04:30:56;;;;;;;;;;;;;;;7.05;94.62;99470.36;107509;277;103921;-52
2023/11/02 04:33:32;;;;;;;;;;;;;;;7.04;94.70;99468.90;107520;277;114444;-54
2023/11/02 04:36:07;;;;;;;;;;;;;;;7.01;94.63;99468.57;107480;277;96617;-53
2023/11/02 04:38:41;;;;;;;;;;;;;;;7.02;94.59;99463.52;107523;277;96783;-55
2023/11/02 04:41:20;;;;;;;;;;;;;;;7.04;94.51;99456.72;107519;277;121776;-55
2023/11/02 04:43:53;;;;;;;;;;;;;;;7.07;94.38;99458.85;107544;277;105374;-58
2023/11/02 04:46:27;;;;;;;;;;;;;;;7.10;94.36;99463.48;107484;277;113489;-58
2023/11/02 04:49:04;;;;;;;;;;;;;;;7.10;94.32;99462.06;107522;277;98260;-56
2023/11/02 04:51:57;;;;;;;;;;;;;;;7.10;94.26;99463.48;107562;277;98060;-56
2023/11/02 04:54:31;;;;;;;;;;;;;;;7.14;94.11;99457.23;107544;277;121820;-56
2023/11/02 04:57:04;;;;;;;;;;;;;;;7.15;93.96;99450.02;107506;277;105959;-56
2023/11/02 04:59:46;;;;;;;;;;;;;;;7.10;94.05;99443.95;107517;277;114490;-57
2023/11/02 05:02:19;;;;;;;;;;;;;;;7.08;94.10;99438.71;107517;277;95565;-55
2023/11/02 05:04:57;;;;;;;;;;;;;;;7.08;94.05;99437.02;107520;277;97202;-57
2023/11/02 05:07:34;;;;;;;;;;;;;;;7.08;93.96;99433.80;107527;277;121084;-53
2023/11/02 05:10:10;;;;;;;;;;;;;;;7.07;93.91;99435.56;107583;277;105417;-52
2023/11/02 05:12:48;;;;;;;;;;;;;;;7.06;93.81;99442.85;107563;277;114355;-53
2023/11/02 05:15:28;;;;;;;;;;;;;;;7.04;93.84;99440.52;107495;277;95946;-54
2023/11/02 05:18:01;;;;;;;;;;;;;;;7.06;93.82;99440.17;107563;277;95489;-57
2023/11/02 05:20:36;;;;;;;;;;;;;;;7.06;93.70;99441.60;107543;277;121650;-57
2023/11/02 05:23:13;;;;;;;;;;;;;;;7.03;93.70;99438.95;107575;277;105633;-57
2023/11/02 05:25:49;;;;;;;;;;;;;;;7.02;93.83;99435.88;107507;277;113325;-57
2023/11/02 05:28:27;;;;;;;;;;;;;;;7.00;93.54;99426.60;107551;277;97145;-57
2023/11/02 05:31:07;;;;;;;;;;;;;;;7.02;93.77;99430.34;107484;277;97193;-56
2023/11/02 05:33:44;;;;;;;;;;;;;;;7.00;93.70;99427.96;107586;277;120540;-57
2023/11/02 05:36:25;;;;;;;;;;;;;;;7.06;93.52;99425.88;107535;277;105612;-56
2023/11/02 05:39:02;;;;;;;;;;;;;;;7.06;93.43;99432.11;107527;277;114562;-55
2023/11/02 05:41:41;;;;;;;;;;;;;;;7.06;93.39;99427.11;107495;277;97296;-56
2023/11/02 05:44:15;;;;;;;;;;;;;;;7.06;93.47;99422.81;107610;277;96962;-57
2023/11/02 05:46:48;;;;;;;;;;;;;;;7.06;93.31;99418.73;107627;277;121577;-57
2023/11/02 05:49:24;;;;;;;;;;;;;;;7.05;93.37;99412.66;107578;277;105584;-53
2023/11/02 05:52:02;;;;;;;;;;;;;;;7.11;93.35;99415.02;107586;277;114418;-53
2023/11/02 05:54:38;;;;;;;;;;;;;;;7.12;93.36;99415.00;107459;277;97402;-57
2023/11/02 05:57:15;;;;;;;;;;;;;;;7.15;93.27;99413.59;107529;277;97938;-57
2023/11/02 05:59:52;;;;;;;;;;;;;;;7.21;93.08;99406.94;107545;277;121632;-51
2023/11/02 06:02:25;;;;;;;;;;;;;;;7.22;93.12;99405.42;107609;277;105749;-53
2023/11/02 06:05:04;;;;;;;;;;;;;;;7.24;93.19;99404.98;107571;277;114367;-53
2023/11/02 06:07:38;;;;;;;;;;;;;;;7.29;93.03;99408.05;107582;277;96759;-53
2023/11/02 06:10:11;;;;;;;;;;;;;;;7.33;93.04;99409.21;107603;277;97094;-53
2023/11/02 06:12:43;;;;;;;;;;;;;;;7.39;93.03;99408.90;107582;277;122193;-53
2023/11/02 06:15:19;;;;;;;;;;;;;;;7.37;92.92;99398.09;107610;277;103895;-54
2023/11/02 06:17:53;;;;;;;;;;;;;;;7.40;92.88;99394.65;107463;277;114054;-53
2023/11/02 06:20:27;;;;;;;;;;;;;;;7.46;92.76;99397.63;107563;277;95497;-52
2023/11/02 06:23:11;;;;;;;;;;;;;;;7.53;92.85;99391.80;107629;277;98539;-54
2023/11/02 06:25:50;;;;;;;;;;;;;;;7.60;92.70;99389.60;107558;277;122839;-53
2023/11/02 06:28:27;;;;;;;;;;;;;;;7.66;92.78;99386.17;107638;277;105885;-57
2023/11/02 06:31:01;;;;;;;;;;;;;;;7.75;92.60;99381.04;107619;277;113611;-58
2023/11/02 06:33:37;;;;;;;;;;;;;;;7.86;92.66;99385.32;107621;277;94844;-54
2023/11/02 06:36:12;;;;;;;;;;;;;;;7.95;92.71;99389.34;107590;277;96379;-54
2023/11/02 06:38:45;;;;;;;;;;;;;;;8.07;92.81;99389.25;107608;277;119914;-53
2023/11/02 06:41:22;;;;;;;;;;;;;;;8.48;93.12;99389.83;107590;277;103192;-53
2023/11/02 06:44:01;;;;;;;;;;;;;;;9.10;93.30;99388.58;107590;277;113711;-58
2023/11/02 06:46:35;;;;;;;;;;;;;;;9.44;92.27;99379.58;107581;277;96164;-58
2023/11/02 06:49:10;;;;;;;;;;;;;;;9.38;91.24;99385.77;107521;277;98155;-53
2023/11/02 06:51:44;;;;;;;;;;;;;;;9.21;90.68;99387.41;107520;277;122031;-52
2023/11/02 06:54:21;;;;;;;;;;;;;;;9.17;90.47;99386.44;107512;277;105267;-56
2023/11/02 06:56:59;;;;;;;;;;;;;;;9.08;90.15;99377.63;107460;277;113225;-56
2023/11/02 06:59:34;;;;;;;;;;;;;;;9.07;89.72;99369.55;107473;277;94204;-58
2023/11/02 07:02:11;;;;;;;;;;;;;;;9.08;89.66;99368.31;107462;277;95196;-57
2023/11/02 07:04:44;;;;;;;;;;;;;;;9.10;89.27;99367.58;107513;277;120330;-52
2023/11/02 07:07:27;;;;;;;;;;;;;;;8.95;89.38;99362.33;107473;277;103661;-52
2023/11/02 07:10:05;;;;;;;;;;;;;;;8.91;89.27;99357.67;107480;277;112933;-56
2023/11/02 07:12:43;;;;;;;;;;;;;;;8.95;89.52;99353.95;107463;277;95598;-52
2023/11/02 07:15:18;;;;;;;;;;;;;;;9.02;89.40;99344.02;107518;277;97003;-53
2023/11/02 07:17:57;;;;;;;;;;;;;;;9.09;89.59;99338.52;107490;277;121389;-56
2023/11/02 07:20:33;;;;;;;;;;;;;;;9.20;89.63;99330.27;107486;277;105737;-57
2023/11/02 07:23:09;;;;;;;;;;;;;;;9.40;89.65;99332.80;107480;277;114936;-53
2023/11/02 07:25:42;;;;;;;;;;;;;;;9.70;89.67;99330.98;107479;277;96684;-53
2023/11/02 07:28:19;;;;;;;;;;;;;;;9.95;89.88;99327.91;107537;277;96361;-57
2023/11/02 07:30:59;;;;;;;;;;;;;;;10.60;89.51;99323.45;107429;278;123114;-56
2023/11/02 07:33:39;;;;;;;;;;;;;;;12.00;87.12;99312.93;107474;277;104804;-55
2023/11/02 07:36:17;;;;;;;;;;;;;;;12.71;84.71;99307.96;107511;277;112683;-57
2023/11/02 07:38:57;;;;;;;;;;;;;;;12.71;85.41;99311.25;107482;277;93199;-54
2023/11/02 07:41:32;;;;;;;;;;;;;;;12.85;84.53;99311.63;107461;277;97804;-53
2023/11/02 07:44:09;;;;;;;;;;;;;;;13.01;84.52;99316.44;107527;277;121212;-61
2023/11/02 07:46:46;;;;;;;;;;;;;;;12.94;84.08;99319.22;107474;277;105486;-53
2023/11/02 07:49:27;;;;;;;;;;;;;;;12.82;83.52;99312.52;107561;277;114529;-55
2023/11/02 07:52:05;;;;;;;;;;;;;;;12.80;82.60;99308.30;107480;277;94641;-54
2023/11/02 07:54:41;;;;;;;;;;;;;;;13.35;81.84;99301.33;107527;277;97670;-57
2023/11/02 07:57:23;;;;;;;;;;;;;;;14.45;80.63;99297.66;107451;277;122615;-58
2023/11/02 07:59:59;;;;;;;;;;;;;;;15.04;79.61;99299.73;107501;277;106020;-57
2023/11/02 08:02:36;;;;;;;;;;;;;;;15.32;78.58;99293.24;107526;277;114190;-53
2023/11/02 08:08:03;;;;;;;;;;;;;;;15.54;76.20;99286.05;107493;277;96470;-53
2023/11/02 08:10:44;;;;;;;;;;;;;;;15.28;75.71;99287.19;107542;277;121297;-54
2023/11/02 08:13:31;;;;;;;;;;;;;;;14.65;75.48;99283.06;107403;278;105819;-56
2023/11/02 08:16:07;;;;;;;;;;;;;;;14.25;74.90;99280.71;107493;277;113899;-57
2023/11/02 08:18:44;;;;;;;;;;;;;;;13.82;74.82;99281.84;107506;277;95393;-57
2023/11/02 08:21:21;;;;;;;;;;;;;;;13.40;75.11;99283.84;107536;277;98113;-54
2023/11/02 08:24:02;;;;;;;;;;;;;;;13.02;75.29;99282.77;107469;277;122711;-52
2023/11/02 08:26:41;;;;;;;;;;;;;;;12.94;76.08;99276.52;107473;277;104395;-54
2023/11/02 08:29:15;;;;;;;;;;;;;;;13.00;76.53;99274.79;107518;277;114090;-56
2023/11/02 08:31:49;;;;;;;;;;;;;;;13.16;76.63;99264.36;107470;277;94850;-55
2023/11/02 08:34:23;;;;;;;;;;;;;;;13.29;76.20;99257.80;107539;277;97213;-53
2023/11/02 08:36:58;;;;;;;;;;;;;;;13.31;76.01;99253.25;107492;277;121759;-55
2023/11/02 08:39:37;;;;;;;;;;;;;;;13.37;75.69;99250.39;107520;277;103957;-56
2023/11/02 08:42:11;;;;;;;;;;;;;;;13.43;75.90;99252.34;107483;277;113216;-56
2023/11/02 08:44:47;;;;;;;;;;;;;;;13.34;75.20;99250.23;107556;277;92481;-54
2023/11/02 08:47:27;;;;;;;;;;;;;;;13.42;75.74;99251.46;107542;277;97562;-55
2023/11/02 08:50:03;;;;;;;;;;;;;;;13.54;75.60;99249.50;107494;277;121689;-53
2023/11/02 08:52:42;;;;;;;;;;;;;;;13.62;75.66;99243.82;107529;277;105355;-53
2023/11/02 08:55:19;;;;;;;;;;;;;;;13.79;74.86;99232.73;107518;277;115121;-57
2023/11/02 08:57:57;;;;;;;;;;;;;;;14.03;74.80;99223.21;107485;277;94404;-55
2023/11/02 09:00:33;;;;;;;;;;;;;;;14.11;74.67;99219.64;107542;277;97266;-53
2023/11/02 09:03:14;;;;;;;;;;;;;;;14.27;74.60;99219.20;107469;277;120809;-51
2023/11/02 09:05:50;;;;;;;;;;;;;;;14.41;74.30;99211.02;107472;277;106555;-55
2023/11/02 09:08:25;;;;;;;;;;;;;;;14.79;74.20;99209.37;107539;277;115582;-55
2023/11/02 09:10:58;;;;;;;;;;;;;;;15.46;73.77;99208.80;107498;277;94808;-57
2023/11/02 09:13:31;;;;;;;;;;;;;;;16.02;72.48;99204.56;107531;277;96816;-53
2023/11/02 09:16:05;;;;;;;;;;;;;;;16.41;71.38;99198.27;107534;277;121292;-57
2023/11/02 09:18:41;;;;;;;;;;;;;;;16.98;70.69;99195.58;107594;277;105913;-55
2023/11/02 09:21:16;;;;;;;;;;;;;;;17.47;68.53;99184.65;107471;277;114560;-54
2023/11/02 09:23:50;;;;;;;;;;;;;;;17.71;68.09;99181.65;107487;277;94744;-53
2023/11/02 09:26:25;;;;;;;;;;;;;;;18.05;68.89;99184.76;107499;277;97277;-53
2023/11/02 09:29:06;;;;;;;;;;;;;;;18.46;66.50;99178.45;107564;277;122495;-57
2023/11/02 09:31:50;;;;;;;;;;;;;;;18.78;66.45;99173.31;107518;277;105185;-58
2023/11/02 09:34:27;;;;;;;;;;;;;;;19.06;66.28;99170.96;107461;277;116016;-58
2023/11/02 09:37:13;;;;;;;;;;;;;;;19.42;66.20;99161.41;107500;277;95433;-58
2023/11/02 09:39:46;;;;;;;;;;;;;;;19.73;64.66;99153.46;107561;277;95203;-53
2023/11/02 09:42:24;;;;;;;;;;;;;;;19.73;63.21;99154.98;107550;277;122250;-54
2023/11/02 09:45:00;;;;;;;;;;;;;;;19.85;62.78;99150.46;107619;277;104820;-53
2023/11/02 09:47:38;;;;;;;;;;;;;;;19.89;60.97;99147.05;107634;277;113981;-54
2023/11/02 09:50:20;;;;;;;;;;;;;;;19.81;61.35;99147.35;107561;277;95150;-55
2023/11/02 09:52:56;;;;;;;;;;;;;;;19.46;60.94;99141.70;107635;277;96602;-53
2023/11/02 09:55:30;;;;;;;;;;;;;;;19.08;61.26;99140.85;107595;277;121359;-53
2023/11/02 09:58:06;;;;;;;;;;;;;;;18.61;60.66;99137.94;107628;277;104257;-52
2023/11/02 10:00:53;;;;;;;;;;;;;;;18.01;61.00;99136.14;107482;277;114490;-53
2023/11/02 10:03:28;;;;;;;;;;;;;;;17.26;61.23;99132.36;107538;278;95178;-56
2023/11/02 10:06:03;;;;;;;;;;;;;;;16.75;61.98;99129.59;107506;278;97972;-55
2023/11/02 10:08:40;;;;;;;;;;;;;;;16.26;63.05;99125.39;107485;278;122298;-54
2023/11/02 10:11:24;;;;;;;;;;;;;;;16.04;63.75;99120.90;107495;278;104067;-54
2023/11/02 10:14:04;;;;;;;;;;;;;;;15.89;63.64;99120.13;107505;278;113711;-58
2023/11/02 10:16:40;;;;;;;;;;;;;;;15.56;64.19;99120.38;107410;278;92793;-57
2023/11/02 10:19:15;;;;;;;;;;;;;;;15.37;64.86;99109.65;107500;278;97877;-57
2023/11/02 10:21:50;;;;;;;;;;;;;;;15.21;65.19;99102.56;107523;278;120857;-56
2023/11/02 10:24:32;;;;;;;;;;;;;;;14.99;65.31;99102.13;107514;278;104293;-54
2023/11/02 10:27:10;;;;;;;;;;;;;;;14.75;66.12;99096.20;107543;278;113962;-53
2023/11/02 10:29:49;;;;;;;;;;;;;;;14.63;66.76;99093.58;107458;278;91927;-57
2023/11/02 10:32:25;;;;;;;;;;;;;;;14.60;67.08;99091.16;107527;278;96767;-55
2023/11/02 10:34:59;;;;;;;;;;;;;;;14.59;67.41;99091.92;107569;278;121974;-53
2023/11/02 10:37:37;;;;;;;;;;;;;;;14.55;67.75;99087.89;107498;278;104188;-57
2023/11/02 10:40:16;;;;;;;;;;;;;;;14.46;67.78;99078.84;107472;278;114349;-56
2023/11/02 10:42:52;;;;;;;;;;;;;;;14.37;67.94;99085.20;107503;278;93700;-54
2023/11/02 10:45:28;;;;;;;;;;;;;;;14.33;68.07;99078.81;107364;278;97041;-56
2023/11/02 10:48:10;;;;;;;;;;;;;;;14.33;68.46;99079.65;107490;278;120854;-54
2023/11/02 10:50:45;;;;;;;;;;;;;;;14.33;68.55;99072.09;106974;279;558477;-53
2023/11/02 10:53:28;;;;;;;;;;;;;;;14.25;68.88;99061.17;107498;278;114024;-53
2023/11/02 10:56:10;;;;;;;;;;;;;;;14.24;68.62;99057.06;107462;278;93327;-53
2023/11/02 10:58:45;;;;;;;;;;;;;;;14.20;68.71;99044.58;107533;278;96203;-54
2023/11/02 11:01:23;;;;;;;;;;;;;;;14.13;68.81;99044.11;107485;277;121262;-53
2023/11/02 11:04:00;;;;;;;;;;;;;;;14.13;68.96;99050.05;107500;277;105677;-56
2023/11/02 11:06:36;;;;;;;;;;;;;;;14.07;68.88;99046.89;107512;277;115130;-56
2023/11/02 11:09:14;;;;;;;;;;;;;;;13.95;68.78;99044.99;107464;277;94282;-53
2023/11/02 11:11:50;;;;;;;;;;;;;;;13.90;69.29;99040.73;107490;277;96955;-53
2023/11/02 11:14:28;;;;;;;;;;;;;;;13.91;69.41;99042.98;107524;277;121390;-57
2023/11/02 11:17:04;;;;;;;;;;;;;;;13.86;69.53;99045.16;107480;277;106484;-58
2023/11/02 11:19:37;;;;;;;;;;;;;;;13.83;69.58;99043.83;107506;277;114801;-54
2023/11/02 11:22:15;;;;;;;;;;;;;;;13.79;69.24;99043.23;107471;277;93915;-54
2023/11/02 11:24:57;;;;;;;;;;;;;;;13.80;69.63;99040.81;107519;277;96778;-56
2023/11/02 11:27:34;;;;;;;;;;;;;;;13.81;69.78;99031.64;107511;277;122158;-53
2023/11/02 11:30:37;;;;;;;;;;;;;;;13.77;69.86;99025.83;107563;277;105258;-53
2023/11/02 11:33:37;;;;;;;;;;;;;;;13.75;70.16;99020.41;107470;277;114738;-52
2023/11/02 11:36:28;;;;;;;;;;;;;;;13.77;70.16;99019.67;107494;277;93477;-53
2023/11/02 11:39:23;;;;;;;;;;;;;;;13.71;69.50;99014.52;107557;277;96723;-53
2023/11/02 11:42:00;;;;;;;;;;;;;;;13.62;70.04;99014.30;107498;277;121980;-55
2023/11/02 11:44:38;;;;;;;;;;;;;;;13.63;70.20;99016.27;107527;277;105224;-57
2023/11/02 11:47:37;;;;;;;;;;;;;;;13.59;70.26;99016.38;107446;277;113768;-58
2023/11/02 11:50:12;;;;;;;;;;;;;;;13.61;70.34;99014.54;107456;277;94438;-58
2023/11/02 11:52:52;;;;;;;;;;;;;;;13.57;70.69;99007.48;107556;277;97491;-55
2023/11/02 11:55:38;;;;;;;;;;;;;;;13.58;70.76;99004.88;107512;277;122303;-54
2023/11/02 11:58:16;;;;;;;;;;;;;;;13.56;70.91;99006.49;107475;277;105161;-57
2023/11/02 12:01:17;;;;;;;;;;;;;;;13.56;70.88;99002.80;107485;277;113187;-56
2023/11/02 12:03:52;;;;;;;;;;;;;;;13.56;71.10;98998.46;107566;277;92523;-57
2023/11/02 12:06:39;;;;;;;;;;;;;;;13.55;71.11;98991.12;107432;277;97283;-58
2023/11/02 12:09:29;;;;;;;;;;;;;;;13.56;71.00;98990.15;107591;277;120188;-56
2023/11/02 12:12:09;;;;;;;;;;;;;;;13.54;71.26;98981.48;107493;277;104524;-56
2023/11/02 12:14:48;;;;;;;;;;;;;;;13.53;71.29;98978.36;107515;277;114729;-57
2023/11/02 12:17:24;;;;;;;;;;;;;;;13.53;71.32;98969.31;107571;277;95904;-56
2023/11/02 12:19:59;;;;;;;;;;;;;;;13.52;71.36;98963.77;107508;277;97658;-62
2023/11/02 12:22:49;;;;;;;;;;;;;;;13.52;71.50;98965.39;107504;277;121579;-54
2023/11/02 12:25:24;;;;;;;;;;;;;;;13.50;71.65;98958.56;107515;277;106245;-54
2023/11/02 12:28:02;;;;;;;;;;;;;;;13.53;71.67;98962.37;107531;277;114722;-56
2023/11/02 12:30:44;;;;;;;;;;;;;;;13.59;71.57;98964.48;107533;277;93752;-56
2023/11/02 12:33:28;;;;;;;;;;;;;;;13.62;71.77;98951.78;107547;277;97380;-55
2023/11/02 12:36:04;;;;;;;;;;;;;;;13.63;71.69;98954.14;107493;277;121685;-54
2023/11/02 12:38:46;;;;;;;;;;;;;;;13.59;71.81;98954.89;107535;277;105275;-56
2023/11/02 12:41:28;;;;;;;;;;;;;;;13.56;71.60;98947.52;107514;277;114410;-57
2023/11/02 12:44:10;;;;;;;;;;;;;;;13.54;71.67;98942.41;107509;277;94413;-57
2023/11/02 12:46:48;;;;;;;;;;;;;;;13.50;71.94;98936.92;107561;277;97974;-57
2023/11/02 12:49:25;;;;;;;;;;;;;;;13.46;71.89;98931.80;107560;277;121137;-58
2023/11/02 12:52:13;;;;;;;;;;;;;;;13.46;72.10;98933.26;107550;277;103790;-57
2023/11/02 12:55:00;;;;;;;;;;;;;;;13.46;72.41;98933.09;107474;277;114499;-54
2023/11/02 12:57:45;;;;;;;;;;;;;;;13.44;72.53;98935.56;107558;277;93438;-51
2023/11/02 13:00:48;;;;;;;;;;;;;;;13.43;72.46;98934.39;107508;277;96588;-52
2023/11/02 13:03:21;;;;;;;;;;;;;;;13.42;72.50;98927.65;107565;277;122129;-54
2023/11/02 13:06:03;;;;;;;;;;;;;;;13.41;72.49;98924.52;107503;277;104748;-53
2023/11/02 13:08:39;;;;;;;;;;;;;;;13.41;72.66;98919.07;107614;277;115371;-53
2023/11/02 13:11:19;;;;;;;;;;;;;;;13.43;72.69;98911.40;107531;277;96552;-53
2023/11/02 13:13:56;;;;;;;;;;;;;;;13.47;72.70;98906.64;107580;277;97694;-53
2023/11/02 13:16:33;;;;;;;;;;;;;;;13.48;72.60;98915.50;107564;277;121691;-52
2023/11/02 13:19:12;;;;;;;;;;;;;;;13.46;72.71;98913.35;107477;277;108012;-55
2023/11/02 13:21:45;;;;;;;;;;;;;;;13.46;72.58;98909.05;107498;277;114044;-57
2023/11/02 13:24:24;;;;;;;;;;;;;;;13.43;72.77;98903.63;107552;277;93572;-57
2023/11/02 13:27:02;;;;;;;;;;;;;;;13.40;72.69;98895.66;107457;277;97426;-56
2023/11/02 13:29:36;;;;;;;;;;;;;;;13.37;72.50;98894.85;107590;277;121067;-56
2023/11/02 13:32:10;;;;;;;;;;;;;;;13.35;72.44;98894.60;107570;277;104533;-56
2023/11/02 13:34:44;;;;;;;;;;;;;;;13.33;72.49;98890.31;107625;277;113499;-52
2023/11/02 13:37:23;;;;;;;;;;;;;;;13.30;72.57;98890.21;107504;277;93318;-53
2023/11/02 13:39:59;;;;;;;;;;;;;;;13.25;72.76;98890.19;107547;277;97597;-57
2023/11/02 13:42:35;;;;;;;;;;;;;;;13.23;72.62;98894.11;107579;277;122859;-52
2023/11/02 13:45:10;;;;;;;;;;;;;;;13.24;72.79;98888.85;107514;277;104945;-52
2023/11/02 13:47:49;;;;;;;;;;;;;;;13.22;73.00;98889.75;107581;277;113563;-55
2023/11/02 13:50:27;;;;;;;;;;;;;;;13.22;73.04;98889.48;107533;277;96524;-54